Airfield :
LOGIN :

Register | Disclaimer

   EN    FR    IT 

 










Legend :    VFR   Marginal VFR   IFR   Intensive IFR   Very Intensive IFR
Visi :
Ceiling :
>= 8 km
>= 3000ft
5 to 8 km
1000 to 3000 ft
1500m to 5 km
500 to 1000 ft
800 to 1500m
200 to 500 ft
< 800m
< 200 ft
Symbols :   Thunderstorms  Fog  Heavy snow  Heavy precipitations  Wind > 20 kt
SIGMETs :     Misc.  Thunderstorms  Icing  Turbulence  Mountain Waves  Volcanic Ashes






- Airport Elevation : 436 ft
- IATA code : ANG


LFBU - Angoulême Brie Champniers

CURRENT METAR :
  • 062100Z AUTO /////KT //// R28///// // ////// 21/11 Q1025

EXPIRED METARs :
  • 062030Z AUTO /////KT //// R28///// // ////// 21/11 Q1025
  • 062000Z AUTO /////KT //// R28///// // ////// 22/11 Q1025
  • 061930Z AUTO /////KT //// R28///// // ////// 23/11 Q1024
  • 061900Z AUTO /////KT //// R28///// // ////// 24/11 Q1024
  • 061830Z AUTO /////KT //// R28///// // ////// 25/11 Q1024

TAF TAF LFBU
Valid from the 06 at 18:00 until the 07 at 18:00 UTC


061700Z 0618/0718 03010KT CAVOK
BECMG 0712/0714 33010KT
BECMG 0716/0718 03010KT



MET'MAP, your aeronautical weather chart ! - Copyright ORBIFLY December 2007 - Disclaimer

ORBIFLY MET'MAP TEAM :

Programming & Development : Alexandra Zaïnal
Original concept : Baudouin d'Aumeries
Technical & hardware support : Manuel Goepfert
Assistance : Marc-Olivier Méhu




SOURCES & CREDITS :

   NOAA